Terminal Aerodrome Forecast
Issued by NWS Nashville, TN

Home | Current Version | Previous Version | Text Only | Print | Product List | Glossary On
Versions: 1 2 3 4 5 6 7 8 9 10 11 12 13 14 15 16
264
FTUS44 KOHX 220520
TAFCSV
TAF
KCSV 220520Z 2206/2306 12005KT P6SM BKN250
     FM221400 13006KT P6SM VCSH BKN035 OVC100
     FM221600 12008KT 5SM -SHRA BKN035 OVC050
     FM221800 11008G15KT 5SM -SHRA OVC025
     FM222200 11010G17KT 5SM -SHRA OVC015=

USA.gov is the U.S. government's official web portal to all federal, state and local government web resources and services.